createdAt,value
2022-08-26T00:03:37.684Z,23.27
2022-08-26T00:15:42.877Z,20.58
2022-08-26T00:21:45.590Z,23.08
2022-08-26T00:27:48.160Z,9.27
2022-08-26T00:33:50.452Z,12.45
2022-08-26T00:39:53.163Z,19.92
2022-08-26T00:46:02.456Z,21.90
2022-08-26T00:52:09.902Z,18.73
2022-08-26T00:58:14.249Z,25.10
2022-08-26T01:10:28.075Z,17.70
2022-08-26T01:16:30.806Z,13.18
2022-08-26T01:22:55.736Z,22.63
2022-08-26T01:29:00.580Z,13.65
2022-08-26T01:35:03.609Z,6.85
2022-08-26T01:41:12.464Z,18.73
2022-08-26T01:47:22.142Z,11.68
2022-08-26T01:53:25.578Z,18.33
2022-08-26T01:59:29.701Z,24.55
2022-08-26T02:05:32.030Z,22.20
2022-08-26T02:11:35.015Z,13.70
2022-08-26T02:17:43.626Z,17.92
2022-08-26T02:23:45.948Z,13.40
2022-08-26T02:29:53.153Z,6.82
2022-08-26T02:35:55.604Z,12.05
2022-08-26T02:41:59.484Z,13.05
2022-08-26T02:48:11.644Z,13.95
2022-08-26T02:54:14.416Z,19.77
2022-08-26T03:00:17.389Z,21.35
2022-08-26T03:06:19.823Z,8.88
2022-08-26T03:12:26.039Z,18.65
2022-08-26T03:18:28.880Z,12.45
2022-08-26T03:24:31.744Z,14.35
2022-08-26T03:30:45.026Z,22.83
2022-08-26T03:36:47.862Z,13.35
2022-08-26T03:42:51.301Z,12.02
2022-08-26T03:48:53.689Z,9.68
2022-08-26T03:54:56.225Z,15.98
2022-08-26T04:07:00.711Z,7.97
2022-08-26T04:19:06.811Z,11.80
2022-08-26T04:25:09.707Z,11.63
2022-08-26T04:31:14.923Z,24.73
2022-08-26T04:37:17.509Z,14.13
2022-08-26T04:43:19.780Z,21.83
2022-08-26T04:55:25.227Z,12.57
2022-08-26T05:01:44.347Z,17.25
2022-08-26T05:07:46.703Z,10.90
2022-08-26T05:13:50.856Z,13.75
2022-08-26T05:19:53.264Z,12.57
2022-08-26T05:25:59.192Z,28.33
2022-08-26T05:32:02.944Z,14.38
2022-08-26T05:38:12.416Z,20.42
2022-08-26T05:44:20.562Z,25.13
2022-08-26T05:50:25.933Z,31.02
2022-08-26T05:56:28.674Z,18.60
2022-08-26T06:02:30.905Z,23.35
2022-08-26T06:08:33.384Z,9.93
2022-08-26T06:14:36.516Z,14.25
2022-08-26T06:20:43.925Z,18.83
2022-08-26T06:27:02.316Z,17.85
2022-08-26T06:33:04.773Z,21.85
2022-08-26T06:39:10.389Z,59.10
2022-08-26T06:45:12.819Z,21.23
2022-08-26T06:51:18.925Z,21.58
2022-08-26T06:57:21.067Z,13.02
2022-08-26T07:03:23.615Z,20.08
2022-08-26T07:09:28.818Z,21.55
2022-08-26T07:15:31.653Z,38.38
2022-08-26T07:21:34.324Z,23.50
2022-08-26T07:27:38.456Z,16.58
2022-08-26T07:33:41.666Z,5.85
2022-08-26T07:39:44.663Z,11.23
2022-08-26T07:45:47.232Z,10.27
2022-08-26T07:51:50.516Z,17.48
2022-08-26T07:57:53.273Z,21.25
2022-08-26T08:03:56.882Z,23.38
2022-08-26T08:09:59.488Z,11.10
2022-08-26T08:16:02.269Z,17.23
2022-08-26T08:22:06.889Z,9.55
2022-08-26T08:28:19.776Z,12.18
2022-08-26T08:34:24.945Z,30.42
2022-08-26T08:40:28.481Z,7.85
2022-08-26T08:46:31.809Z,22.48
2022-08-26T08:52:39.601Z,8.85
2022-08-26T08:58:52.121Z,25.50
2022-08-26T09:05:09.275Z,14.75
2022-08-26T09:11:19.497Z,20.13
2022-08-26T09:17:33.742Z,13.45
2022-08-26T09:23:41.780Z,21.13
2022-08-26T09:29:45.906Z,17.95
2022-08-26T09:36:24.783Z,20.88
2022-08-26T09:42:27.146Z,14.93
2022-08-26T09:48:38.146Z,15.43
2022-08-26T09:54:46.014Z,13.88
2022-08-26T10:00:57.353Z,13.20
2022-08-26T10:07:06.433Z,8.20
2022-08-26T10:13:33.004Z,13.68
2022-08-26T10:19:57.206Z,9.65
2022-08-26T10:26:14.182Z,20.42
2022-08-26T10:32:41.377Z,11.80
2022-08-26T10:38:44.730Z,38.35
2022-08-26T10:44:51.120Z,22.38
2022-08-26T10:50:53.612Z,30.73
2022-08-26T10:57:10.865Z,33.30
2022-08-26T11:03:21.881Z,21.00
2022-08-26T11:09:47.189Z,40.20
2022-08-26T11:15:52.738Z,28.63
2022-08-26T11:22:47.397Z,27.90
2022-08-26T11:28:50.716Z,32.55
2022-08-26T11:34:58.448Z,49.08
2022-08-26T11:41:09.317Z,22.05
2022-08-26T11:47:15.346Z,45.63
2022-08-26T11:53:19.296Z,26.00
2022-08-26T12:05:59.046Z,28.50
2022-08-26T12:12:13.879Z,33.28
2022-08-26T12:18:29.681Z,30.55
2022-08-26T12:24:32.678Z,20.25
2022-08-26T12:30:35.369Z,30.98
2022-08-26T12:36:46.839Z,10.40
2022-08-26T12:42:49.180Z,25.40
2022-08-26T12:48:51.655Z,25.60
2022-08-26T12:55:00.124Z,27.48
2022-08-26T13:01:06.759Z,19.73
2022-08-26T13:07:24.694Z,20.38
2022-08-26T13:13:27.215Z,37.50
2022-08-26T13:19:32.228Z,32.60
2022-08-26T13:25:34.629Z,12.70
2022-08-26T13:31:40.326Z,28.25
2022-08-26T13:37:42.867Z,23.08
2022-08-26T13:43:45.423Z,29.55
2022-08-26T13:49:47.641Z,25.55
2022-08-26T13:55:50.339Z,31.17
2022-08-26T14:01:52.697Z,39.67
2022-08-26T14:07:57.583Z,29.48
2022-08-26T14:14:00.321Z,16.58
2022-08-26T14:20:02.787Z,37.08
2022-08-26T14:26:08.511Z,40.30
2022-08-26T14:32:24.083Z,26.05
2022-08-26T14:38:26.767Z,29.67
2022-08-26T14:44:32.311Z,38.03
2022-08-26T14:50:34.687Z,28.50
2022-08-26T14:56:39.888Z,33.72
2022-08-26T15:02:42.968Z,28.92
2022-08-26T15:08:45.362Z,26.38
2022-08-26T15:14:48.717Z,15.68
2022-08-26T15:20:50.909Z,28.27
2022-08-26T15:26:54.090Z,33.72
2022-08-26T15:32:56.280Z,32.15
2022-08-26T15:39:00.648Z,40.90
2022-08-26T15:45:03.122Z,33.20
2022-08-26T15:51:06.810Z,30.05
2022-08-26T15:57:11.527Z,30.88
2022-08-26T16:03:14.918Z,16.63
2022-08-26T16:09:17.300Z,34.35
2022-08-26T16:15:20.038Z,19.35
2022-08-26T16:21:24.999Z,33.55
2022-08-26T16:27:27.798Z,31.50
2022-08-26T16:33:30.547Z,48.10
2022-08-26T16:39:32.978Z,36.22
2022-08-26T16:45:42.414Z,33.10
2022-08-26T16:51:44.711Z,32.03
2022-08-26T16:57:47.628Z,24.40
2022-08-26T17:03:50.890Z,53.88
2022-08-26T17:09:53.295Z,51.75
2022-08-26T17:15:58.487Z,23.00
2022-08-26T17:22:02.472Z,25.88
2022-08-26T17:28:13.298Z,27.48
2022-08-26T17:34:15.828Z,44.15
2022-08-26T17:40:20.991Z,51.80
2022-08-26T17:46:23.797Z,34.30
2022-08-26T17:52:26.157Z,21.30
2022-08-26T17:58:28.563Z,26.10
2022-08-26T18:04:32.223Z,59.92
2022-08-26T18:10:35.368Z,46.22
2022-08-26T18:16:42.009Z,41.00
2022-08-26T18:22:44.857Z,37.53
2022-08-26T18:28:47.224Z,38.20
2022-08-26T18:34:49.743Z,55.90
2022-08-26T18:40:52.578Z,54.83
2022-08-26T18:46:54.775Z,65.07
2022-08-26T18:52:57.102Z,47.38
2022-08-26T18:59:00.064Z,54.67
2022-08-26T19:05:02.239Z,58.65
2022-08-26T19:11:04.620Z,61.78
2022-08-26T19:17:09.455Z,69.90
2022-08-26T19:23:30.358Z,54.85
2022-08-26T19:29:35.882Z,45.30
2022-08-26T19:35:38.274Z,53.72
2022-08-26T19:41:40.662Z,54.38
2022-08-26T19:47:43.187Z,56.90
2022-08-26T19:53:46.183Z,43.65
2022-08-26T19:59:48.305Z,46.80
2022-08-26T20:05:50.414Z,45.67
2022-08-26T20:11:52.794Z,57.15
2022-08-26T20:17:58.915Z,59.15
2022-08-26T20:24:08.782Z,53.83
2022-08-26T20:30:11.731Z,50.13
2022-08-26T20:36:15.381Z,55.72
2022-08-26T20:42:27.389Z,42.33
2022-08-26T20:48:30.278Z,30.75
2022-08-26T20:54:32.401Z,40.17
2022-08-26T21:00:34.910Z,59.05
2022-08-26T21:06:38.599Z,49.85
2022-08-26T21:12:41.071Z,54.50
2022-08-26T21:18:43.626Z,60.65
2022-08-26T21:24:45.812Z,60.50
2022-08-26T21:30:48.164Z,47.25
2022-08-26T21:36:50.317Z,39.60
2022-08-26T21:42:52.568Z,41.47
2022-08-26T21:49:01.263Z,45.17
2022-08-26T21:55:08.848Z,60.65
2022-08-26T22:01:13.642Z,43.08
2022-08-26T22:07:18.413Z,44.55
2022-08-26T22:13:26.605Z,62.65
2022-08-26T22:19:32.007Z,42.08
2022-08-26T22:25:36.542Z,46.50
2022-08-26T22:31:39.058Z,32.28
2022-08-26T22:37:41.190Z,44.97
2022-08-26T22:43:43.539Z,51.55
2022-08-26T22:49:46.980Z,59.00
2022-08-26T22:55:49.826Z,59.65
2022-08-26T23:01:52.075Z,38.40
2022-08-26T23:13:56.506Z,61.65
2022-08-26T23:19:58.881Z,27.42
2022-08-26T23:26:04.454Z,53.38
2022-08-26T23:32:08.441Z,33.70
2022-08-26T23:38:11.696Z,50.60
2022-08-26T23:44:17.099Z,48.17
2022-08-26T23:50:22.605Z,49.90
2022-08-26T23:56:25.183Z,46.47
